sensor_id;sensor_type;location;lat;lon;timestamp;P1;durP1;ratioP1;P2;durP2;ratioP2
48363;SDS011;34170;54.364;18.582;2023-02-15T00:02:03;18.15;;;8.90;;
48363;SDS011;34170;54.364;18.582;2023-02-15T00:04:30;15.57;;;8.95;;
48363;SDS011;34170;54.364;18.582;2023-02-15T00:07:16;17.55;;;8.65;;
48363;SDS011;34170;54.364;18.582;2023-02-15T00:09:46;14.57;;;9.65;;
48363;SDS011;34170;54.364;18.582;2023-02-15T00:12:14;14.30;;;9.27;;
48363;SDS011;34170;54.364;18.582;2023-02-15T00:14:42;16.15;;;9.45;;
48363;SDS011;34170;54.364;18.582;2023-02-15T00:17:09;17.00;;;10.20;;
48363;SDS011;34170;54.364;18.582;2023-02-15T00:19:37;16.52;;;10.10;;
48363;SDS011;34170;54.364;18.582;2023-02-15T00:22:04;18.20;;;10.48;;
48363;SDS011;34170;54.364;18.582;2023-02-15T00:24:32;18.15;;;10.38;;
48363;SDS011;34170;54.364;18.582;2023-02-15T00:27:00;21.88;;;11.18;;
48363;SDS011;34170;54.364;18.582;2023-02-15T00:29:27;19.42;;;11.38;;
48363;SDS011;34170;54.364;18.582;2023-02-15T00:31:55;19.75;;;11.32;;
48363;SDS011;34170;54.364;18.582;2023-02-15T00:34:23;16.95;;;10.48;;
48363;SDS011;34170;54.364;18.582;2023-02-15T00:36:52;17.83;;;10.95;;
48363;SDS011;34170;54.364;18.582;2023-02-15T00:39:20;17.13;;;10.38;;
48363;SDS011;34170;54.364;18.582;2023-02-15T00:41:48;19.38;;;10.65;;
48363;SDS011;34170;54.364;18.582;2023-02-15T00:44:17;17.42;;;9.90;;
48363;SDS011;34170;54.364;18.582;2023-02-15T00:46:44;17.90;;;10.45;;
48363;SDS011;34170;54.364;18.582;2023-02-15T00:49:12;19.23;;;10.40;;
48363;SDS011;34170;54.364;18.582;2023-02-15T00:51:39;16.00;;;9.60;;
48363;SDS011;34170;54.364;18.582;2023-02-15T00:54:07;18.02;;;10.13;;
48363;SDS011;34170;54.364;18.582;2023-02-15T00:56:35;17.63;;;9.88;;
48363;SDS011;34170;54.364;18.582;2023-02-15T00:59:03;17.60;;;10.02;;
48363;SDS011;34170;54.364;18.582;2023-02-15T01:01:30;17.38;;;10.30;;
48363;SDS011;34170;54.364;18.582;2023-02-15T01:03:58;15.50;;;10.25;;
48363;SDS011;34170;54.364;18.582;2023-02-15T01:06:29;19.52;;;12.10;;
48363;SDS011;34170;54.364;18.582;2023-02-15T01:08:56;22.63;;;12.60;;
48363;SDS011;34170;54.364;18.582;2023-02-15T01:11:23;26.25;;;13.93;;
48363;SDS011;34170;54.364;18.582;2023-02-15T01:13:55;21.00;;;13.02;;
48363;SDS011;34170;54.364;18.582;2023-02-15T01:16:25;23.48;;;13.05;;
48363;SDS011;34170;54.364;18.582;2023-02-15T01:18:54;24.67;;;14.07;;
48363;SDS011;34170;54.364;18.582;2023-02-15T01:21:23;25.63;;;13.57;;
48363;SDS011;34170;54.364;18.582;2023-02-15T01:23:52;23.25;;;14.00;;
48363;SDS011;34170;54.364;18.582;2023-02-15T01:26:19;27.63;;;14.27;;
48363;SDS011;34170;54.364;18.582;2023-02-15T01:28:47;22.27;;;13.63;;
48363;SDS011;34170;54.364;18.582;2023-02-15T01:31:17;26.63;;;14.38;;
48363;SDS011;34170;54.364;18.582;2023-02-15T01:33:46;28.27;;;16.05;;
48363;SDS011;34170;54.364;18.582;2023-02-15T01:36:15;26.85;;;15.23;;
48363;SDS011;34170;54.364;18.582;2023-02-15T01:38:44;31.30;;;15.60;;
48363;SDS011;34170;54.364;18.582;2023-02-15T01:41:12;30.48;;;15.88;;
48363;SDS011;34170;54.364;18.582;2023-02-15T01:43:54;34.40;;;16.50;;
48363;SDS011;34170;54.364;18.582;2023-02-15T01:46:30;30.42;;;15.90;;
48363;SDS011;34170;54.364;18.582;2023-02-15T01:49:03;30.52;;;16.05;;
48363;SDS011;34170;54.364;18.582;2023-02-15T01:51:38;32.65;;;16.70;;
48363;SDS011;34170;54.364;18.582;2023-02-15T01:56:37;27.02;;;14.57;;
48363;SDS011;34170;54.364;18.582;2023-02-15T01:59:08;27.17;;;15.77;;
48363;SDS011;34170;54.364;18.582;2023-02-15T02:01:41;29.60;;;15.75;;
48363;SDS011;34170;54.364;18.582;2023-02-15T02:04:11;31.65;;;16.75;;
48363;SDS011;34170;54.364;18.582;2023-02-15T02:06:43;31.65;;;16.90;;
48363;SDS011;34170;54.364;18.582;2023-02-15T02:09:14;28.55;;;14.88;;
48363;SDS011;34170;54.364;18.582;2023-02-15T02:11:42;28.92;;;15.07;;
48363;SDS011;34170;54.364;18.582;2023-02-15T02:14:14;32.70;;;17.55;;
48363;SDS011;34170;54.364;18.582;2023-02-15T02:17:04;32.47;;;16.88;;
48363;SDS011;34170;54.364;18.582;2023-02-15T02:25:03;33.92;;;17.30;;
48363;SDS011;34170;54.364;18.582;2023-02-15T02:36:32;38.10;;;18.92;;
48363;SDS011;34170;54.364;18.582;2023-02-15T02:41:58;33.60;;;17.80;;
48363;SDS011;34170;54.364;18.582;2023-02-15T02:45:05;33.50;;;18.05;;
48363;SDS011;34170;54.364;18.582;2023-02-15T02:47:34;39.42;;;19.02;;
48363;SDS011;34170;54.364;18.582;2023-02-15T02:50:28;40.30;;;20.05;;
48363;SDS011;34170;54.364;18.582;2023-02-15T02:52:57;38.45;;;18.83;;
48363;SDS011;34170;54.364;18.582;2023-02-15T02:58:51;35.80;;;18.77;;
48363;SDS011;34170;54.364;18.582;2023-02-15T03:04:20;38.38;;;20.20;;
48363;SDS011;34170;54.364;18.582;2023-02-15T03:06:54;34.97;;;17.70;;
48363;SDS011;34170;54.364;18.582;2023-02-15T03:09:31;36.72;;;18.50;;
48363;SDS011;34170;54.364;18.582;2023-02-15T03:12:17;38.50;;;17.88;;
48363;SDS011;34170;54.364;18.582;2023-02-15T03:15:06;40.75;;;20.20;;
48363;SDS011;34170;54.364;18.582;2023-02-15T03:17:43;35.70;;;17.98;;
48363;SDS011;34170;54.364;18.582;2023-02-15T03:20:27;33.10;;;17.25;;
48363;SDS011;34170;54.364;18.582;2023-02-15T03:23:01;34.83;;;16.63;;
48363;SDS011;34170;54.364;18.582;2023-02-15T03:25:37;30.65;;;16.67;;
48363;SDS011;34170;54.364;18.582;2023-02-15T03:28:18;30.45;;;16.77;;
48363;SDS011;34170;54.364;18.582;2023-02-15T03:30:52;36.47;;;17.08;;
48363;SDS011;34170;54.364;18.582;2023-02-15T03:33:23;30.48;;;16.10;;
48363;SDS011;34170;54.364;18.582;2023-02-15T03:35:54;33.40;;;17.40;;
48363;SDS011;34170;54.364;18.582;2023-02-15T03:38:25;31.83;;;16.38;;
48363;SDS011;34170;54.364;18.582;2023-02-15T03:41:16;35.80;;;18.45;;
48363;SDS011;34170;54.364;18.582;2023-02-15T03:46:40;36.47;;;17.73;;
48363;SDS011;34170;54.364;18.582;2023-02-15T03:49:29;36.00;;;17.35;;
48363;SDS011;34170;54.364;18.582;2023-02-15T03:52:03;33.35;;;17.05;;
48363;SDS011;34170;54.364;18.582;2023-02-15T03:54:34;32.57;;;17.10;;
48363;SDS011;34170;54.364;18.582;2023-02-15T03:57:17;36.33;;;17.65;;
48363;SDS011;34170;54.364;18.582;2023-02-15T04:03:23;29.60;;;15.88;;
48363;SDS011;34170;54.364;18.582;2023-02-15T04:05:51;36.47;;;17.67;;
48363;SDS011;34170;54.364;18.582;2023-02-15T04:08:19;33.55;;;16.55;;
48363;SDS011;34170;54.364;18.582;2023-02-15T04:10:46;36.22;;;17.30;;
48363;SDS011;34170;54.364;18.582;2023-02-15T04:13:20;32.35;;;16.10;;
48363;SDS011;34170;54.364;18.582;2023-02-15T04:16:07;31.20;;;15.93;;
48363;SDS011;34170;54.364;18.582;2023-02-15T04:18:38;29.90;;;16.95;;
48363;SDS011;34170;54.364;18.582;2023-02-15T04:21:29;34.05;;;15.65;;
48363;SDS011;34170;54.364;18.582;2023-02-15T04:24:15;30.17;;;14.57;;
48363;SDS011;34170;54.364;18.582;2023-02-15T04:27:02;29.00;;;15.75;;
48363;SDS011;34170;54.364;18.582;2023-02-15T04:29:31;28.60;;;15.98;;
48363;SDS011;34170;54.364;18.582;2023-02-15T04:31:59;26.38;;;14.73;;
48363;SDS011;34170;54.364;18.582;2023-02-15T04:34:28;29.13;;;15.35;;
48363;SDS011;34170;54.364;18.582;2023-02-15T04:36:55;31.05;;;15.63;;
48363;SDS011;34170;54.364;18.582;2023-02-15T04:39:23;29.08;;;16.13;;
48363;SDS011;34170;54.364;18.582;2023-02-15T04:41:50;33.35;;;15.88;;
48363;SDS011;34170;54.364;18.582;2023-02-15T04:44:18;28.02;;;14.70;;
48363;SDS011;34170;54.364;18.582;2023-02-15T04:46:45;27.77;;;15.68;;
48363;SDS011;34170;54.364;18.582;2023-02-15T04:49:13;29.30;;;15.00;;
48363;SDS011;34170;54.364;18.582;2023-02-15T04:51:40;29.80;;;15.13;;
48363;SDS011;34170;54.364;18.582;2023-02-15T04:54:07;27.60;;;14.38;;
48363;SDS011;34170;54.364;18.582;2023-02-15T04:56:35;27.75;;;15.00;;
48363;SDS011;34170;54.364;18.582;2023-02-15T04:59:04;27.48;;;13.80;;
48363;SDS011;34170;54.364;18.582;2023-02-15T05:01:32;25.25;;;13.68;;
48363;SDS011;34170;54.364;18.582;2023-02-15T05:04:00;24.70;;;13.43;;
48363;SDS011;34170;54.364;18.582;2023-02-15T05:06:28;23.67;;;12.88;;
48363;SDS011;34170;54.364;18.582;2023-02-15T05:08:56;24.45;;;12.98;;
48363;SDS011;34170;54.364;18.582;2023-02-15T05:11:26;26.17;;;13.88;;
48363;SDS011;34170;54.364;18.582;2023-02-15T05:13:54;25.88;;;14.00;;
48363;SDS011;34170;54.364;18.582;2023-02-15T05:16:21;28.35;;;14.93;;
48363;SDS011;34170;54.364;18.582;2023-02-15T05:18:49;21.10;;;12.32;;
48363;SDS011;34170;54.364;18.582;2023-02-15T05:21:16;25.95;;;13.63;;
48363;SDS011;34170;54.364;18.582;2023-02-15T05:23:43;25.48;;;14.85;;
48363;SDS011;34170;54.364;18.582;2023-02-15T05:26:12;27.17;;;14.50;;
48363;SDS011;34170;54.364;18.582;2023-02-15T05:29:03;24.30;;;14.43;;
48363;SDS011;34170;54.364;18.582;2023-02-15T05:31:30;28.27;;;14.50;;
48363;SDS011;34170;54.364;18.582;2023-02-15T05:33:58;26.15;;;14.00;;
48363;SDS011;34170;54.364;18.582;2023-02-15T05:36:26;28.63;;;13.68;;
48363;SDS011;34170;54.364;18.582;2023-02-15T05:38:55;24.25;;;13.25;;
48363;SDS011;34170;54.364;18.582;2023-02-15T05:41:23;28.27;;;14.20;;
48363;SDS011;34170;54.364;18.582;2023-02-15T05:43:50;26.48;;;14.07;;
48363;SDS011;34170;54.364;18.582;2023-02-15T05:46:18;23.10;;;12.77;;
48363;SDS011;34170;54.364;18.582;2023-02-15T05:48:45;22.83;;;12.25;;
48363;SDS011;34170;54.364;18.582;2023-02-15T05:51:13;27.58;;;13.15;;
48363;SDS011;34170;54.364;18.582;2023-02-15T05:53:41;27.20;;;14.45;;
48363;SDS011;34170;54.364;18.582;2023-02-15T05:56:09;26.17;;;13.77;;
48363;SDS011;34170;54.364;18.582;2023-02-15T05:58:38;30.35;;;14.65;;
48363;SDS011;34170;54.364;18.582;2023-02-15T06:01:25;25.45;;;13.77;;
48363;SDS011;34170;54.364;18.582;2023-02-15T06:03:52;27.33;;;14.27;;
48363;SDS011;34170;54.364;18.582;2023-02-15T06:06:21;23.73;;;12.68;;
48363;SDS011;34170;54.364;18.582;2023-02-15T06:08:49;26.10;;;13.93;;
48363;SDS011;34170;54.364;18.582;2023-02-15T06:11:16;26.58;;;12.55;;
48363;SDS011;34170;54.364;18.582;2023-02-15T06:13:44;27.38;;;15.10;;
48363;SDS011;34170;54.364;18.582;2023-02-15T06:16:11;25.75;;;13.40;;
48363;SDS011;34170;54.364;18.582;2023-02-15T06:18:39;24.90;;;13.43;;
48363;SDS011;34170;54.364;18.582;2023-02-15T06:21:06;22.80;;;13.23;;
48363;SDS011;34170;54.364;18.582;2023-02-15T06:23:33;25.80;;;13.90;;
48363;SDS011;34170;54.364;18.582;2023-02-15T06:26:01;23.08;;;13.05;;
48363;SDS011;34170;54.364;18.582;2023-02-15T06:28:29;25.98;;;14.43;;
48363;SDS011;34170;54.364;18.582;2023-02-15T06:30:56;28.80;;;14.27;;
48363;SDS011;34170;54.364;18.582;2023-02-15T06:33:24;23.48;;;12.07;;
48363;SDS011;34170;54.364;18.582;2023-02-15T06:35:52;26.48;;;14.75;;
48363;SDS011;34170;54.364;18.582;2023-02-15T06:38:19;23.33;;;12.88;;
48363;SDS011;34170;54.364;18.582;2023-02-15T06:40:46;29.33;;;13.73;;
48363;SDS011;34170;54.364;18.582;2023-02-15T06:43:14;26.83;;;13.07;;
48363;SDS011;34170;54.364;18.582;2023-02-15T06:45:41;28.40;;;13.23;;
48363;SDS011;34170;54.364;18.582;2023-02-15T06:48:09;26.48;;;14.75;;
48363;SDS011;34170;54.364;18.582;2023-02-15T06:50:38;26.52;;;14.60;;
48363;SDS011;34170;54.364;18.582;2023-02-15T06:53:05;29.50;;;13.10;;
48363;SDS011;34170;54.364;18.582;2023-02-15T06:55:33;28.42;;;13.27;;
48363;SDS011;34170;54.364;18.582;2023-02-15T06:58:00;27.80;;;12.65;;
48363;SDS011;34170;54.364;18.582;2023-02-15T07:00:28;24.30;;;12.98;;
48363;SDS011;34170;54.364;18.582;2023-02-15T07:02:58;27.63;;;14.05;;
48363;SDS011;34170;54.364;18.582;2023-02-15T07:05:26;28.77;;;13.27;;
48363;SDS011;34170;54.364;18.582;2023-02-15T07:07:58;24.90;;;14.13;;
48363;SDS011;34170;54.364;18.582;2023-02-15T07:10:27;24.90;;;14.15;;
48363;SDS011;34170;54.364;18.582;2023-02-15T07:12:54;23.70;;;13.43;;
48363;SDS011;34170;54.364;18.582;2023-02-15T07:15:22;32.25;;;15.23;;
48363;SDS011;34170;54.364;18.582;2023-02-15T07:17:49;29.15;;;13.70;;
48363;SDS011;34170;54.364;18.582;2023-02-15T07:20:19;23.92;;;13.65;;
48363;SDS011;34170;54.364;18.582;2023-02-15T07:22:48;25.48;;;13.07;;
48363;SDS011;34170;54.364;18.582;2023-02-15T07:25:17;31.38;;;14.00;;
48363;SDS011;34170;54.364;18.582;2023-02-15T07:27:45;24.30;;;13.10;;
48363;SDS011;34170;54.364;18.582;2023-02-15T07:30:13;23.73;;;12.55;;
48363;SDS011;34170;54.364;18.582;2023-02-15T07:32:43;26.73;;;13.35;;
48363;SDS011;34170;54.364;18.582;2023-02-15T07:35:32;22.98;;;13.43;;
48363;SDS011;34170;54.364;18.582;2023-02-15T07:38:00;25.73;;;13.30;;
48363;SDS011;34170;54.364;18.582;2023-02-15T07:40:28;22.90;;;12.60;;
48363;SDS011;34170;54.364;18.582;2023-02-15T07:42:57;25.25;;;12.90;;
48363;SDS011;34170;54.364;18.582;2023-02-15T07:45:25;22.60;;;11.70;;
48363;SDS011;34170;54.364;18.582;2023-02-15T07:47:52;22.20;;;11.90;;
48363;SDS011;34170;54.364;18.582;2023-02-15T07:50:19;26.48;;;13.00;;
48363;SDS011;34170;54.364;18.582;2023-02-15T07:52:47;20.70;;;12.00;;
48363;SDS011;34170;54.364;18.582;2023-02-15T07:55:14;26.35;;;13.15;;
48363;SDS011;34170;54.364;18.582;2023-02-15T07:57:46;26.15;;;13.05;;
48363;SDS011;34170;54.364;18.582;2023-02-15T08:00:16;23.38;;;12.38;;
48363;SDS011;34170;54.364;18.582;2023-02-15T08:02:48;29.05;;;14.48;;
48363;SDS011;34170;54.364;18.582;2023-02-15T08:05:37;24.80;;;13.20;;
48363;SDS011;34170;54.364;18.582;2023-02-15T08:08:05;25.10;;;13.52;;
48363;SDS011;34170;54.364;18.582;2023-02-15T08:10:33;24.58;;;12.82;;
48363;SDS011;34170;54.364;18.582;2023-02-15T08:13:21;23.33;;;12.60;;
48363;SDS011;34170;54.364;18.582;2023-02-15T08:15:49;23.48;;;13.30;;
48363;SDS011;34170;54.364;18.582;2023-02-15T08:18:17;25.35;;;12.15;;
48363;SDS011;34170;54.364;18.582;2023-02-15T08:20:50;27.35;;;13.95;;
48363;SDS011;34170;54.364;18.582;2023-02-15T08:23:17;30.23;;;14.07;;
48363;SDS011;34170;54.364;18.582;2023-02-15T08:25:45;26.13;;;12.85;;
48363;SDS011;34170;54.364;18.582;2023-02-15T08:28:12;25.58;;;13.00;;
48363;SDS011;34170;54.364;18.582;2023-02-15T08:30:40;25.15;;;13.25;;
48363;SDS011;34170;54.364;18.582;2023-02-15T08:33:07;24.77;;;14.10;;
48363;SDS011;34170;54.364;18.582;2023-02-15T08:35:36;26.17;;;13.10;;
48363;SDS011;34170;54.364;18.582;2023-02-15T08:38:04;25.20;;;13.88;;
48363;SDS011;34170;54.364;18.582;2023-02-15T08:40:31;26.80;;;14.50;;
48363;SDS011;34170;54.364;18.582;2023-02-15T08:42:58;23.75;;;13.30;;
48363;SDS011;34170;54.364;18.582;2023-02-15T08:45:26;25.92;;;12.98;;
48363;SDS011;34170;54.364;18.582;2023-02-15T08:47:54;28.85;;;13.90;;
48363;SDS011;34170;54.364;18.582;2023-02-15T08:50:21;23.75;;;12.95;;
48363;SDS011;34170;54.364;18.582;2023-02-15T08:52:48;20.23;;;12.73;;
48363;SDS011;34170;54.364;18.582;2023-02-15T08:55:16;26.23;;;13.68;;
48363;SDS011;34170;54.364;18.582;2023-02-15T08:57:43;24.05;;;12.38;;
48363;SDS011;34170;54.364;18.582;2023-02-15T09:00:12;27.17;;;13.85;;
48363;SDS011;34170;54.364;18.582;2023-02-15T09:02:40;24.17;;;13.13;;
48363;SDS011;34170;54.364;18.582;2023-02-15T09:05:08;25.60;;;13.77;;
48363;SDS011;34170;54.364;18.582;2023-02-15T09:07:35;29.90;;;13.70;;
48363;SDS011;34170;54.364;18.582;2023-02-15T09:10:03;26.80;;;13.27;;
48363;SDS011;34170;54.364;18.582;2023-02-15T09:12:31;23.48;;;12.82;;
48363;SDS011;34170;54.364;18.582;2023-02-15T09:14:58;26.63;;;14.82;;
48363;SDS011;34170;54.364;18.582;2023-02-15T09:17:26;24.92;;;13.75;;
48363;SDS011;34170;54.364;18.582;2023-02-15T09:19:53;25.88;;;13.50;;
48363;SDS011;34170;54.364;18.582;2023-02-15T09:22:21;22.33;;;13.02;;
48363;SDS011;34170;54.364;18.582;2023-02-15T09:24:48;26.73;;;13.73;;
48363;SDS011;34170;54.364;18.582;2023-02-15T09:27:15;27.50;;;13.90;;
48363;SDS011;34170;54.364;18.582;2023-02-15T09:29:43;23.48;;;12.70;;
48363;SDS011;34170;54.364;18.582;2023-02-15T09:32:13;27.25;;;13.45;;
48363;SDS011;34170;54.364;18.582;2023-02-15T09:34:41;22.42;;;13.10;;
48363;SDS011;34170;54.364;18.582;2023-02-15T09:37:08;23.20;;;12.77;;
48363;SDS011;34170;54.364;18.582;2023-02-15T09:39:37;23.77;;;13.43;;
48363;SDS011;34170;54.364;18.582;2023-02-15T09:48:18;23.90;;;12.73;;
48363;SDS011;34170;54.364;18.582;2023-02-15T09:53:40;26.52;;;12.35;;
48363;SDS011;34170;54.364;18.582;2023-02-15T10:01:57;24.90;;;12.85;;
48363;SDS011;34170;54.364;18.582;2023-02-15T10:05:02;23.65;;;11.98;;
48363;SDS011;34170;54.364;18.582;2023-02-15T10:21:04;25.20;;;13.15;;
48363;SDS011;34170;54.364;18.582;2023-02-15T10:23:50;22.75;;;12.73;;
48363;SDS011;34170;54.364;18.582;2023-02-15T10:26:40;23.95;;;13.43;;
48363;SDS011;34170;54.364;18.582;2023-02-15T10:32:20;26.05;;;13.40;;
48363;SDS011;34170;54.364;18.582;2023-02-15T10:34:51;27.65;;;14.32;;
48363;SDS011;34170;54.364;18.582;2023-02-15T10:53:30;24.55;;;13.25;;
48363;SDS011;34170;54.364;18.582;2023-02-15T10:58:56;28.52;;;15.45;;
48363;SDS011;34170;54.364;18.582;2023-02-15T11:07:32;26.52;;;14.63;;
48363;SDS011;34170;54.364;18.582;2023-02-15T11:10:11;30.08;;;16.25;;
48363;SDS011;34170;54.364;18.582;2023-02-15T11:12:47;28.02;;;16.63;;
48363;SDS011;34170;54.364;18.582;2023-02-15T11:17:55;28.95;;;16.25;;
48363;SDS011;34170;54.364;18.582;2023-02-15T11:20:28;28.45;;;16.15;;
48363;SDS011;34170;54.364;18.582;2023-02-15T11:23:00;27.80;;;15.70;;
48363;SDS011;34170;54.364;18.582;2023-02-15T11:25:30;26.08;;;15.40;;
48363;SDS011;34170;54.364;18.582;2023-02-15T11:28:03;26.52;;;15.68;;
48363;SDS011;34170;54.364;18.582;2023-02-15T11:30:46;26.08;;;16.65;;
48363;SDS011;34170;54.364;18.582;2023-02-15T11:33:23;28.40;;;16.40;;
48363;SDS011;34170;54.364;18.582;2023-02-15T11:36:07;28.83;;;16.95;;
48363;SDS011;34170;54.364;18.582;2023-02-15T11:38:41;28.85;;;16.88;;
48363;SDS011;34170;54.364;18.582;2023-02-15T11:41:11;29.27;;;16.23;;
48363;SDS011;34170;54.364;18.582;2023-02-15T11:43:47;27.52;;;16.42;;
48363;SDS011;34170;54.364;18.582;2023-02-15T11:46:21;31.98;;;16.90;;
48363;SDS011;34170;54.364;18.582;2023-02-15T11:48:49;26.88;;;15.52;;
48363;SDS011;34170;54.364;18.582;2023-02-15T11:51:20;25.90;;;16.30;;
48363;SDS011;34170;54.364;18.582;2023-02-15T11:53:50;28.65;;;16.33;;
48363;SDS011;34170;54.364;18.582;2023-02-15T11:56:20;25.55;;;16.40;;
48363;SDS011;34170;54.364;18.582;2023-02-15T11:58:54;27.57;;;16.13;;
48363;SDS011;34170;54.364;18.582;2023-02-15T12:01:31;27.77;;;16.90;;
48363;SDS011;34170;54.364;18.582;2023-02-15T12:04:09;32.65;;;16.63;;
48363;SDS011;34170;54.364;18.582;2023-02-15T12:06:51;29.20;;;17.20;;
48363;SDS011;34170;54.364;18.582;2023-02-15T12:09:36;31.33;;;17.30;;
48363;SDS011;34170;54.364;18.582;2023-02-15T12:12:22;30.52;;;17.88;;
48363;SDS011;34170;54.364;18.582;2023-02-15T12:15:02;31.05;;;17.70;;
48363;SDS011;34170;54.364;18.582;2023-02-15T12:17:32;29.58;;;18.48;;
48363;SDS011;34170;54.364;18.582;2023-02-15T12:22:54;32.38;;;19.52;;
48363;SDS011;34170;54.364;18.582;2023-02-15T12:25:35;34.75;;;19.08;;
48363;SDS011;34170;54.364;18.582;2023-02-15T12:31:07;31.05;;;16.98;;
48363;SDS011;34170;54.364;18.582;2023-02-15T12:33:47;34.60;;;18.33;;
48363;SDS011;34170;54.364;18.582;2023-02-15T12:36:20;32.38;;;18.65;;
48363;SDS011;34170;54.364;18.582;2023-02-15T12:41:46;29.08;;;17.60;;
48363;SDS011;34170;54.364;18.582;2023-02-15T12:44:35;29.90;;;18.40;;
48363;SDS011;34170;54.364;18.582;2023-02-15T12:49:43;27.00;;;17.13;;
48363;SDS011;34170;54.364;18.582;2023-02-15T12:54:44;27.58;;;16.38;;
48363;SDS011;34170;54.364;18.582;2023-02-15T12:57:13;29.30;;;17.13;;
48363;SDS011;34170;54.364;18.582;2023-02-15T13:02:34;28.58;;;16.38;;
48363;SDS011;34170;54.364;18.582;2023-02-15T13:07:51;25.02;;;16.38;;
48363;SDS011;34170;54.364;18.582;2023-02-15T13:10:24;27.27;;;15.60;;
48363;SDS011;34170;54.364;18.582;2023-02-15T13:13:01;29.50;;;16.90;;
48363;SDS011;34170;54.364;18.582;2023-02-15T13:15:36;27.50;;;16.88;;
48363;SDS011;34170;54.364;18.582;2023-02-15T13:18:43;27.90;;;16.13;;
48363;SDS011;34170;54.364;18.582;2023-02-15T13:21:10;30.98;;;16.38;;
48363;SDS011;34170;54.364;18.582;2023-02-15T13:23:42;28.65;;;16.05;;
48363;SDS011;34170;54.364;18.582;2023-02-15T13:26:37;34.05;;;18.17;;
48363;SDS011;34170;54.364;18.582;2023-02-15T13:29:06;30.45;;;18.90;;
48363;SDS011;34170;54.364;18.582;2023-02-15T13:31:38;31.40;;;18.27;;
48363;SDS011;34170;54.364;18.582;2023-02-15T13:34:12;29.52;;;17.58;;
48363;SDS011;34170;54.364;18.582;2023-02-15T13:43:27;27.42;;;15.98;;
48363;SDS011;34170;54.364;18.582;2023-02-15T13:54:33;28.80;;;16.80;;
48363;SDS011;34170;54.364;18.582;2023-02-15T14:03:10;29.85;;;17.80;;
48363;SDS011;34170;54.364;18.582;2023-02-15T14:14:21;29.92;;;17.50;;
48363;SDS011;34170;54.364;18.582;2023-02-15T14:17:12;36.97;;;19.58;;
48363;SDS011;34170;54.364;18.582;2023-02-15T14:23:11;39.88;;;18.42;;
48363;SDS011;34170;54.364;18.582;2023-02-15T14:31:16;35.70;;;20.30;;
48363;SDS011;34170;54.364;18.582;2023-02-15T14:36:26;34.55;;;18.38;;
48363;SDS011;34170;54.364;18.582;2023-02-15T14:47:04;37.22;;;20.17;;
48363;SDS011;34170;54.364;18.582;2023-02-15T14:49:37;40.17;;;20.77;;
48363;SDS011;34170;54.364;18.582;2023-02-15T14:52:06;38.70;;;22.00;;
48363;SDS011;34170;54.364;18.582;2023-02-15T15:02:20;39.83;;;20.20;;
48363;SDS011;34170;54.364;18.582;2023-02-15T15:12:54;49.72;;;26.40;;
48363;SDS011;34170;54.364;18.582;2023-02-15T15:18:05;49.15;;;26.02;;
48363;SDS011;34170;54.364;18.582;2023-02-15T15:20:50;48.13;;;24.27;;
48363;SDS011;34170;54.364;18.582;2023-02-15T15:31:06;49.17;;;26.70;;
48363;SDS011;34170;54.364;18.582;2023-02-15T15:39:57;51.50;;;26.13;;
48363;SDS011;34170;54.364;18.582;2023-02-15T15:51:02;56.58;;;27.42;;
48363;SDS011;34170;54.364;18.582;2023-02-15T15:53:34;54.33;;;27.27;;
48363;SDS011;34170;54.364;18.582;2023-02-15T15:56:10;58.50;;;27.98;;
48363;SDS011;34170;54.364;18.582;2023-02-15T15:58:48;56.58;;;27.70;;
48363;SDS011;34170;54.364;18.582;2023-02-15T16:01:27;60.00;;;26.95;;
48363;SDS011;34170;54.364;18.582;2023-02-15T16:03:57;57.47;;;27.20;;
48363;SDS011;34170;54.364;18.582;2023-02-15T16:06:33;56.13;;;27.17;;
48363;SDS011;34170;54.364;18.582;2023-02-15T16:09:22;54.42;;;27.35;;
48363;SDS011;34170;54.364;18.582;2023-02-15T16:11:54;55.85;;;28.65;;
48363;SDS011;34170;54.364;18.582;2023-02-15T16:14:34;61.55;;;30.80;;
48363;SDS011;34170;54.364;18.582;2023-02-15T16:17:07;59.67;;;29.67;;
48363;SDS011;34170;54.364;18.582;2023-02-15T16:19:44;62.45;;;28.10;;
48363;SDS011;34170;54.364;18.582;2023-02-15T16:22:18;59.30;;;29.35;;
48363;SDS011;34170;54.364;18.582;2023-02-15T16:27:47;59.15;;;30.85;;
48363;SDS011;34170;54.364;18.582;2023-02-15T16:33:10;60.60;;;28.88;;
48363;SDS011;34170;54.364;18.582;2023-02-15T16:38:34;61.75;;;28.70;;
48363;SDS011;34170;54.364;18.582;2023-02-15T16:41:10;64.57;;;30.85;;
48363;SDS011;34170;54.364;18.582;2023-02-15T16:43:58;66.13;;;32.95;;
48363;SDS011;34170;54.364;18.582;2023-02-15T16:46:38;60.17;;;30.55;;
48363;SDS011;34170;54.364;18.582;2023-02-15T16:49:17;61.72;;;30.30;;
48363;SDS011;34170;54.364;18.582;2023-02-15T16:51:55;61.92;;;31.63;;
48363;SDS011;34170;54.364;18.582;2023-02-15T16:54:25;70.05;;;33.42;;
48363;SDS011;34170;54.364;18.582;2023-02-15T16:56:53;66.50;;;31.88;;
48363;SDS011;34170;54.364;18.582;2023-02-15T17:01:49;70.93;;;32.78;;
48363;SDS011;34170;54.364;18.582;2023-02-15T17:07:35;74.93;;;32.78;;
48363;SDS011;34170;54.364;18.582;2023-02-15T17:09:48;75.43;;;34.70;;
48363;SDS011;34170;54.364;18.582;2023-02-15T17:16:06;78.82;;;35.20;;
48363;SDS011;34170;54.364;18.582;2023-02-15T17:18:08;75.60;;;35.08;;
48363;SDS011;34170;54.364;18.582;2023-02-15T17:20:45;81.63;;;36.80;;
48363;SDS011;34170;54.364;18.582;2023-02-15T17:23:20;76.45;;;34.92;;
48363;SDS011;34170;54.364;18.582;2023-02-15T17:26:10;85.72;;;38.83;;
48363;SDS011;34170;54.364;18.582;2023-02-15T17:31:47;84.72;;;39.05;;
48363;SDS011;34170;54.364;18.582;2023-02-15T17:37:12;77.88;;;36.85;;
48363;SDS011;34170;54.364;18.582;2023-02-15T17:39:49;80.05;;;36.40;;
48363;SDS011;34170;54.364;18.582;2023-02-15T17:42:17;87.00;;;38.00;;
48363;SDS011;34170;54.364;18.582;2023-02-15T17:44:44;78.93;;;35.67;;
48363;SDS011;34170;54.364;18.582;2023-02-15T17:47:16;79.40;;;35.97;;
48363;SDS011;34170;54.364;18.582;2023-02-15T17:49:46;84.32;;;37.88;;
48363;SDS011;34170;54.364;18.582;2023-02-15T17:52:16;84.80;;;38.55;;
48363;SDS011;34170;54.364;18.582;2023-02-15T17:54:44;82.75;;;37.65;;
48363;SDS011;34170;54.364;18.582;2023-02-15T17:57:30;88.05;;;39.38;;
48363;SDS011;34170;54.364;18.582;2023-02-15T17:59:58;91.60;;;38.85;;
48363;SDS011;34170;54.364;18.582;2023-02-15T18:02:44;85.75;;;38.15;;
48363;SDS011;34170;54.364;18.582;2023-02-15T18:05:31;85.03;;;37.05;;
48363;SDS011;34170;54.364;18.582;2023-02-15T18:08:17;88.50;;;39.05;;
48363;SDS011;34170;54.364;18.582;2023-02-15T18:11:09;89.90;;;40.10;;
48363;SDS011;34170;54.364;18.582;2023-02-15T18:13:55;88.05;;;39.03;;
48363;SDS011;34170;54.364;18.582;2023-02-15T18:16:32;81.15;;;34.50;;
48363;SDS011;34170;54.364;18.582;2023-02-15T18:19:02;82.45;;;36.22;;
48363;SDS011;34170;54.364;18.582;2023-02-15T18:21:32;88.68;;;39.45;;
48363;SDS011;34170;54.364;18.582;2023-02-15T18:23:59;83.43;;;36.78;;